Cirencester, United Kingdom
Current Conditions -  °F | °C
As of 3:58 AM on Monday 26 Jan 2015 (Local Time) from EGVA Reporting Station
Light Rain Light Rain  
Wind Chill:   Ceiling: 1000
Heat Index:   Visibility: 6mi
Dew Point:   Wind: 13mph
Humidity: 100%   Direction: 230°SW
Pressure: 30.17"   Gusts: NA
Location:  51.72°N, 1.97°W
Report Text: EGVA 260358Z AUTO 23011KT 9999 -RA OVC010 09/09 A3017 RMK AO2 RAB0357 SLP222 $
Loading
Personal Weather Stations






























Interactive Weather Map New forecast layout! Learn more

10-Day Weather Forecast

Advertisements
Track Severe Weather on mobile